sensor_id;sensor_type;location;lat;lon;timestamp;P1;durP1;ratioP1;P2;durP2;ratioP2
18659;SDS011;9459;50.254;19.014;2023-05-17T00:02:22;3.63;;;3.33;;
18659;SDS011;9459;50.254;19.014;2023-05-17T00:04:53;4.28;;;3.40;;
18659;SDS011;9459;50.254;19.014;2023-05-17T00:07:22;9.85;;;6.07;;
18659;SDS011;9459;50.254;19.014;2023-05-17T00:09:51;3.88;;;3.47;;
18659;SDS011;9459;50.254;19.014;2023-05-17T00:12:19;4.03;;;3.63;;
18659;SDS011;9459;50.254;19.014;2023-05-17T00:14:48;3.65;;;3.25;;
18659;SDS011;9459;50.254;19.014;2023-05-17T00:17:17;4.25;;;3.50;;
18659;SDS011;9459;50.254;19.014;2023-05-17T00:19:46;3.17;;;2.83;;
18659;SDS011;9459;50.254;19.014;2023-05-17T00:22:15;3.45;;;3.15;;
18659;SDS011;9459;50.254;19.014;2023-05-17T00:24:44;3.45;;;3.15;;
18659;SDS011;9459;50.254;19.014;2023-05-17T00:27:12;3.50;;;3.05;;
18659;SDS011;9459;50.254;19.014;2023-05-17T00:29:40;3.80;;;3.50;;
18659;SDS011;9459;50.254;19.014;2023-05-17T00:32:09;3.40;;;3.00;;
18659;SDS011;9459;50.254;19.014;2023-05-17T00:34:39;3.67;;;3.38;;
18659;SDS011;9459;50.254;19.014;2023-05-17T00:37:08;3.42;;;3.13;;
18659;SDS011;9459;50.254;19.014;2023-05-17T00:39:36;3.67;;;3.35;;
18659;SDS011;9459;50.254;19.014;2023-05-17T00:42:05;4.93;;;3.65;;
18659;SDS011;9459;50.254;19.014;2023-05-17T00:44:34;3.65;;;3.35;;
18659;SDS011;9459;50.254;19.014;2023-05-17T00:47:02;4.05;;;3.30;;
18659;SDS011;9459;50.254;19.014;2023-05-17T00:49:31;4.40;;;3.75;;
18659;SDS011;9459;50.254;19.014;2023-05-17T00:52:01;3.53;;;3.20;;
18659;SDS011;9459;50.254;19.014;2023-05-17T00:54:30;4.18;;;3.67;;
18659;SDS011;9459;50.254;19.014;2023-05-17T00:56:58;3.72;;;3.28;;
18659;SDS011;9459;50.254;19.014;2023-05-17T00:59:27;4.43;;;3.90;;
18659;SDS011;9459;50.254;19.014;2023-05-17T01:01:56;4.45;;;4.05;;
18659;SDS011;9459;50.254;19.014;2023-05-17T01:04:25;4.00;;;3.70;;
18659;SDS011;9459;50.254;19.014;2023-05-17T01:06:54;5.60;;;3.97;;
18659;SDS011;9459;50.254;19.014;2023-05-17T01:09:24;3.53;;;3.22;;
18659;SDS011;9459;50.254;19.014;2023-05-17T01:11:53;4.88;;;3.75;;
18659;SDS011;9459;50.254;19.014;2023-05-17T01:14:33;4.45;;;4.05;;
18659;SDS011;9459;50.254;19.014;2023-05-17T01:17:09;4.82;;;4.05;;
18659;SDS011;9459;50.254;19.014;2023-05-17T01:19:46;3.70;;;3.40;;
18659;SDS011;9459;50.254;19.014;2023-05-17T01:22:20;4.22;;;3.80;;
18659;SDS011;9459;50.254;19.014;2023-05-17T01:25:00;4.55;;;4.15;;
18659;SDS011;9459;50.254;19.014;2023-05-17T01:27:37;4.63;;;3.65;;
18659;SDS011;9459;50.254;19.014;2023-05-17T01:30:08;4.28;;;3.88;;
18659;SDS011;9459;50.254;19.014;2023-05-17T01:32:40;5.15;;;3.83;;
18659;SDS011;9459;50.254;19.014;2023-05-17T01:35:09;4.15;;;3.80;;
18659;SDS011;9459;50.254;19.014;2023-05-17T01:37:38;4.15;;;3.75;;
18659;SDS011;9459;50.254;19.014;2023-05-17T01:40:07;4.40;;;4.00;;
18659;SDS011;9459;50.254;19.014;2023-05-17T01:42:38;4.18;;;3.63;;
18659;SDS011;9459;50.254;19.014;2023-05-17T01:45:10;4.43;;;4.03;;
18659;SDS011;9459;50.254;19.014;2023-05-17T01:50:11;4.93;;;4.53;;
18659;SDS011;9459;50.254;19.014;2023-05-17T01:52:44;5.25;;;4.75;;
18659;SDS011;9459;50.254;19.014;2023-05-17T01:55:18;5.78;;;5.10;;
18659;SDS011;9459;50.254;19.014;2023-05-17T01:57:55;5.75;;;5.25;;
18659;SDS011;9459;50.254;19.014;2023-05-17T02:00:24;6.40;;;5.80;;
18659;SDS011;9459;50.254;19.014;2023-05-17T02:02:53;6.10;;;5.47;;
18659;SDS011;9459;50.254;19.014;2023-05-17T02:05:22;6.25;;;5.65;;
18659;SDS011;9459;50.254;19.014;2023-05-17T02:07:51;5.72;;;5.22;;
18659;SDS011;9459;50.254;19.014;2023-05-17T02:10:19;6.63;;;5.13;;
18659;SDS011;9459;50.254;19.014;2023-05-17T02:12:48;4.75;;;4.25;;
18659;SDS011;9459;50.254;19.014;2023-05-17T02:15:18;4.97;;;4.47;;
18659;SDS011;9459;50.254;19.014;2023-05-17T02:17:46;4.13;;;3.72;;
18659;SDS011;9459;50.254;19.014;2023-05-17T02:20:15;4.40;;;4.00;;
18659;SDS011;9459;50.254;19.014;2023-05-17T02:22:44;4.68;;;4.28;;
18659;SDS011;9459;50.254;19.014;2023-05-17T02:25:12;4.80;;;4.40;;
18659;SDS011;9459;50.254;19.014;2023-05-17T02:27:41;4.30;;;3.92;;
18659;SDS011;9459;50.254;19.014;2023-05-17T02:30:10;4.65;;;4.25;;
18659;SDS011;9459;50.254;19.014;2023-05-17T02:32:44;4.47;;;4.07;;
18659;SDS011;9459;50.254;19.014;2023-05-17T02:35:13;4.60;;;4.20;;
18659;SDS011;9459;50.254;19.014;2023-05-17T02:37:42;5.13;;;4.43;;
18659;SDS011;9459;50.254;19.014;2023-05-17T02:40:11;4.70;;;4.30;;
18659;SDS011;9459;50.254;19.014;2023-05-17T02:42:40;4.75;;;4.40;;
18659;SDS011;9459;50.254;19.014;2023-05-17T02:45:09;5.47;;;4.97;;
18659;SDS011;9459;50.254;19.014;2023-05-17T02:47:38;4.70;;;4.30;;
18659;SDS011;9459;50.254;19.014;2023-05-17T02:50:09;5.93;;;5.32;;
18659;SDS011;9459;50.254;19.014;2023-05-17T02:52:37;4.70;;;4.20;;
18659;SDS011;9459;50.254;19.014;2023-05-17T02:55:07;4.90;;;4.50;;
18659;SDS011;9459;50.254;19.014;2023-05-17T02:57:36;4.63;;;4.22;;
18659;SDS011;9459;50.254;19.014;2023-05-17T03:00:06;4.55;;;4.15;;
18659;SDS011;9459;50.254;19.014;2023-05-17T03:02:38;5.07;;;4.57;;
18659;SDS011;9459;50.254;19.014;2023-05-17T03:05:09;5.88;;;5.38;;
18659;SDS011;9459;50.254;19.014;2023-05-17T03:07:38;5.28;;;4.78;;
18659;SDS011;9459;50.254;19.014;2023-05-17T03:10:06;6.10;;;5.22;;
18659;SDS011;9459;50.254;19.014;2023-05-17T03:12:35;5.10;;;4.70;;
18659;SDS011;9459;50.254;19.014;2023-05-17T03:15:05;4.65;;;4.25;;
18659;SDS011;9459;50.254;19.014;2023-05-17T03:17:34;4.75;;;4.35;;
18659;SDS011;9459;50.254;19.014;2023-05-17T03:20:04;5.32;;;4.82;;
18659;SDS011;9459;50.254;19.014;2023-05-17T03:22:35;4.78;;;4.38;;
18659;SDS011;9459;50.254;19.014;2023-05-17T03:25:04;3.97;;;3.67;;
18659;SDS011;9459;50.254;19.014;2023-05-17T03:27:33;3.70;;;3.40;;
18659;SDS011;9459;50.254;19.014;2023-05-17T03:30:02;4.00;;;3.70;;
18659;SDS011;9459;50.254;19.014;2023-05-17T03:32:30;4.20;;;3.80;;
18659;SDS011;9459;50.254;19.014;2023-05-17T03:34:59;3.78;;;3.47;;
18659;SDS011;9459;50.254;19.014;2023-05-17T03:37:28;4.07;;;3.78;;
18659;SDS011;9459;50.254;19.014;2023-05-17T03:39:58;4.65;;;4.25;;
18659;SDS011;9459;50.254;19.014;2023-05-17T03:42:26;4.13;;;3.72;;
18659;SDS011;9459;50.254;19.014;2023-05-17T03:44:55;4.90;;;4.00;;
18659;SDS011;9459;50.254;19.014;2023-05-17T03:47:24;5.35;;;4.07;;
18659;SDS011;9459;50.254;19.014;2023-05-17T03:49:53;4.70;;;4.00;;
18659;SDS011;9459;50.254;19.014;2023-05-17T03:52:21;4.70;;;4.30;;
18659;SDS011;9459;50.254;19.014;2023-05-17T03:54:51;5.47;;;4.32;;
18659;SDS011;9459;50.254;19.014;2023-05-17T03:57:20;4.40;;;4.00;;
18659;SDS011;9459;50.254;19.014;2023-05-17T03:59:49;4.70;;;4.30;;
18659;SDS011;9459;50.254;19.014;2023-05-17T04:02:18;5.10;;;4.53;;
18659;SDS011;9459;50.254;19.014;2023-05-17T04:04:47;5.45;;;4.95;;
18659;SDS011;9459;50.254;19.014;2023-05-17T04:07:17;5.15;;;4.65;;
18659;SDS011;9459;50.254;19.014;2023-05-17T04:09:46;4.85;;;4.35;;
18659;SDS011;9459;50.254;19.014;2023-05-17T04:12:14;4.97;;;4.57;;
18659;SDS011;9459;50.254;19.014;2023-05-17T04:14:44;4.68;;;4.28;;
18659;SDS011;9459;50.254;19.014;2023-05-17T04:17:13;5.45;;;4.85;;
18659;SDS011;9459;50.254;19.014;2023-05-17T04:19:42;5.32;;;4.20;;
18659;SDS011;9459;50.254;19.014;2023-05-17T04:22:11;5.20;;;4.70;;
18659;SDS011;9459;50.254;19.014;2023-05-17T04:24:40;4.72;;;4.30;;
18659;SDS011;9459;50.254;19.014;2023-05-17T04:27:08;6.05;;;4.40;;
18659;SDS011;9459;50.254;19.014;2023-05-17T04:29:37;4.88;;;4.38;;
18659;SDS011;9459;50.254;19.014;2023-05-17T04:32:08;5.28;;;4.78;;
18659;SDS011;9459;50.254;19.014;2023-05-17T04:34:37;5.28;;;4.78;;
18659;SDS011;9459;50.254;19.014;2023-05-17T04:37:05;4.93;;;4.53;;
18659;SDS011;9459;50.254;19.014;2023-05-17T04:39:33;7.63;;;5.72;;
18659;SDS011;9459;50.254;19.014;2023-05-17T04:42:02;6.18;;;5.68;;
18659;SDS011;9459;50.254;19.014;2023-05-17T04:44:31;5.40;;;4.90;;
18659;SDS011;9459;50.254;19.014;2023-05-17T04:47:00;6.35;;;5.75;;
18659;SDS011;9459;50.254;19.014;2023-05-17T04:49:31;5.47;;;4.97;;
18659;SDS011;9459;50.254;19.014;2023-05-17T04:52:00;6.15;;;4.97;;
18659;SDS011;9459;50.254;19.014;2023-05-17T04:54:32;5.82;;;5.30;;
18659;SDS011;9459;50.254;19.014;2023-05-17T04:57:00;6.40;;;5.70;;
18659;SDS011;9459;50.254;19.014;2023-05-17T04:59:29;5.60;;;5.03;;
18659;SDS011;9459;50.254;19.014;2023-05-17T05:01:58;5.80;;;5.30;;
18659;SDS011;9459;50.254;19.014;2023-05-17T05:04:27;6.13;;;5.35;;
18659;SDS011;9459;50.254;19.014;2023-05-17T05:06:57;6.07;;;5.03;;
18659;SDS011;9459;50.254;19.014;2023-05-17T05:09:25;8.95;;;5.70;;
18659;SDS011;9459;50.254;19.014;2023-05-17T05:11:54;10.02;;;6.43;;
18659;SDS011;9459;50.254;19.014;2023-05-17T05:14:23;5.15;;;4.65;;
18659;SDS011;9459;50.254;19.014;2023-05-17T05:16:52;4.70;;;3.92;;
18659;SDS011;9459;50.254;19.014;2023-05-17T05:19:21;5.38;;;4.88;;
18659;SDS011;9459;50.254;19.014;2023-05-17T05:21:50;5.20;;;4.32;;
18659;SDS011;9459;50.254;19.014;2023-05-17T05:24:20;5.75;;;4.53;;
18659;SDS011;9459;50.254;19.014;2023-05-17T05:26:49;4.35;;;3.42;;
18659;SDS011;9459;50.254;19.014;2023-05-17T05:29:18;5.60;;;4.15;;
18659;SDS011;9459;50.254;19.014;2023-05-17T05:31:46;5.80;;;4.20;;
18659;SDS011;9459;50.254;19.014;2023-05-17T05:34:14;6.25;;;4.70;;
18659;SDS011;9459;50.254;19.014;2023-05-17T05:36:43;7.60;;;5.45;;
18659;SDS011;9459;50.254;19.014;2023-05-17T05:39:13;6.07;;;4.75;;
18659;SDS011;9459;50.254;19.014;2023-05-17T05:41:43;5.65;;;4.60;;
18659;SDS011;9459;50.254;19.014;2023-05-17T05:44:12;5.13;;;4.50;;
18659;SDS011;9459;50.254;19.014;2023-05-17T05:46:40;5.05;;;4.53;;
18659;SDS011;9459;50.254;19.014;2023-05-17T05:49:09;4.90;;;4.47;;
18659;SDS011;9459;50.254;19.014;2023-05-17T05:51:37;5.50;;;4.78;;
18659;SDS011;9459;50.254;19.014;2023-05-17T05:54:07;6.05;;;4.45;;
18659;SDS011;9459;50.254;19.014;2023-05-17T05:56:35;5.75;;;4.70;;
18659;SDS011;9459;50.254;19.014;2023-05-17T05:59:06;5.47;;;4.97;;
18659;SDS011;9459;50.254;19.014;2023-05-17T06:01:34;6.17;;;5.57;;
18659;SDS011;9459;50.254;19.014;2023-05-17T06:04:03;5.50;;;4.95;;
18659;SDS011;9459;50.254;19.014;2023-05-17T06:06:32;5.80;;;4.72;;
18659;SDS011;9459;50.254;19.014;2023-05-17T06:09:01;5.13;;;4.63;;
18659;SDS011;9459;50.254;19.014;2023-05-17T06:14:01;4.65;;;4.10;;
18659;SDS011;9459;50.254;19.014;2023-05-17T06:16:31;4.93;;;4.35;;
18659;SDS011;9459;50.254;19.014;2023-05-17T06:18:59;5.63;;;4.55;;
18659;SDS011;9459;50.254;19.014;2023-05-17T06:21:28;5.68;;;4.03;;
18659;SDS011;9459;50.254;19.014;2023-05-17T06:23:57;6.50;;;4.70;;
18659;SDS011;9459;50.254;19.014;2023-05-17T06:26:27;6.28;;;4.30;;
18659;SDS011;9459;50.254;19.014;2023-05-17T06:28:57;7.50;;;4.80;;
18659;SDS011;9459;50.254;19.014;2023-05-17T06:31:26;8.82;;;5.07;;
18659;SDS011;9459;50.254;19.014;2023-05-17T06:33:57;8.10;;;5.25;;
18659;SDS011;9459;50.254;19.014;2023-05-17T06:36:25;5.47;;;4.97;;
18659;SDS011;9459;50.254;19.014;2023-05-17T06:38:54;6.18;;;5.07;;
18659;SDS011;9459;50.254;19.014;2023-05-17T06:41:22;5.63;;;4.80;;
18659;SDS011;9459;50.254;19.014;2023-05-17T06:43:51;6.13;;;4.50;;
18659;SDS011;9459;50.254;19.014;2023-05-17T06:46:19;6.32;;;5.55;;
18659;SDS011;9459;50.254;19.014;2023-05-17T06:48:48;7.78;;;5.15;;
18659;SDS011;9459;50.254;19.014;2023-05-17T06:51:18;6.75;;;5.78;;
18659;SDS011;9459;50.254;19.014;2023-05-17T06:53:47;7.60;;;5.97;;
18659;SDS011;9459;50.254;19.014;2023-05-17T06:56:16;10.27;;;8.77;;
18659;SDS011;9459;50.254;19.014;2023-05-17T06:58:44;9.27;;;7.80;;
18659;SDS011;9459;50.254;19.014;2023-05-17T07:01:13;9.35;;;7.72;;
18659;SDS011;9459;50.254;19.014;2023-05-17T07:03:43;9.50;;;8.02;;
18659;SDS011;9459;50.254;19.014;2023-05-17T07:06:11;9.77;;;7.47;;
18659;SDS011;9459;50.254;19.014;2023-05-17T07:08:41;8.27;;;6.65;;
18659;SDS011;9459;50.254;19.014;2023-05-17T07:11:10;8.77;;;6.63;;
18659;SDS011;9459;50.254;19.014;2023-05-17T07:13:39;11.70;;;10.50;;
18659;SDS011;9459;50.254;19.014;2023-05-17T07:16:07;12.50;;;10.80;;
18659;SDS011;9459;50.254;19.014;2023-05-17T07:18:36;12.45;;;11.02;;
18659;SDS011;9459;50.254;19.014;2023-05-17T07:21:04;18.65;;;11.70;;
18659;SDS011;9459;50.254;19.014;2023-05-17T07:23:34;11.68;;;8.10;;
18659;SDS011;9459;50.254;19.014;2023-05-17T07:26:04;10.40;;;7.85;;
18659;SDS011;9459;50.254;19.014;2023-05-17T07:28:33;10.68;;;7.65;;
18659;SDS011;9459;50.254;19.014;2023-05-17T07:31:01;9.00;;;6.20;;
18659;SDS011;9459;50.254;19.014;2023-05-17T07:33:30;8.57;;;6.32;;
18659;SDS011;9459;50.254;19.014;2023-05-17T07:35:58;9.77;;;7.13;;
18659;SDS011;9459;50.254;19.014;2023-05-17T07:38:27;11.40;;;7.68;;
18659;SDS011;9459;50.254;19.014;2023-05-17T07:40:56;11.52;;;7.43;;
18659;SDS011;9459;50.254;19.014;2023-05-17T07:43:26;10.57;;;7.32;;
18659;SDS011;9459;50.254;19.014;2023-05-17T07:45:55;9.60;;;7.25;;
18659;SDS011;9459;50.254;19.014;2023-05-17T07:48:24;8.25;;;6.22;;
18659;SDS011;9459;50.254;19.014;2023-05-17T07:50:53;8.82;;;6.65;;
18659;SDS011;9459;50.254;19.014;2023-05-17T07:53:22;9.60;;;6.70;;
18659;SDS011;9459;50.254;19.014;2023-05-17T07:55:51;10.85;;;6.88;;
18659;SDS011;9459;50.254;19.014;2023-05-17T07:58:19;9.02;;;6.30;;
18659;SDS011;9459;50.254;19.014;2023-05-17T08:00:49;9.32;;;5.80;;
18659;SDS011;9459;50.254;19.014;2023-05-17T08:03:18;9.30;;;7.50;;
18659;SDS011;9459;50.254;19.014;2023-05-17T08:05:47;18.25;;;12.68;;
18659;SDS011;9459;50.254;19.014;2023-05-17T08:08:16;11.13;;;8.18;;
18659;SDS011;9459;50.254;19.014;2023-05-17T08:10:45;10.20;;;8.15;;
18659;SDS011;9459;50.254;19.014;2023-05-17T08:13:14;10.32;;;7.30;;
18659;SDS011;9459;50.254;19.014;2023-05-17T08:15:42;12.43;;;11.13;;
18659;SDS011;9459;50.254;19.014;2023-05-17T08:18:13;15.35;;;12.27;;
18659;SDS011;9459;50.254;19.014;2023-05-17T08:20:41;13.35;;;11.38;;
18659;SDS011;9459;50.254;19.014;2023-05-17T08:23:11;15.43;;;12.52;;
18659;SDS011;9459;50.254;19.014;2023-05-17T08:25:41;14.82;;;13.15;;
18659;SDS011;9459;50.254;19.014;2023-05-17T08:28:10;16.83;;;12.35;;
18659;SDS011;9459;50.254;19.014;2023-05-17T08:30:38;11.15;;;9.30;;
18659;SDS011;9459;50.254;19.014;2023-05-17T08:33:08;12.25;;;9.60;;
18659;SDS011;9459;50.254;19.014;2023-05-17T08:35:37;7.10;;;6.40;;
18659;SDS011;9459;50.254;19.014;2023-05-17T08:38:07;7.75;;;6.93;;
18659;SDS011;9459;50.254;19.014;2023-05-17T08:40:36;7.80;;;7.00;;
18659;SDS011;9459;50.254;19.014;2023-05-17T08:43:05;8.32;;;7.43;;
18659;SDS011;9459;50.254;19.014;2023-05-17T08:45:34;10.68;;;9.55;;
18659;SDS011;9459;50.254;19.014;2023-05-17T08:48:04;12.35;;;11.13;;
18659;SDS011;9459;50.254;19.014;2023-05-17T08:50:33;14.50;;;13.10;;
18659;SDS011;9459;50.254;19.014;2023-05-17T08:53:04;16.23;;;13.95;;
18659;SDS011;9459;50.254;19.014;2023-05-17T08:55:33;13.15;;;11.85;;
18659;SDS011;9459;50.254;19.014;2023-05-17T08:58:02;10.82;;;9.70;;
18659;SDS011;9459;50.254;19.014;2023-05-17T09:00:31;12.38;;;11.02;;
18659;SDS011;9459;50.254;19.014;2023-05-17T09:03:01;9.13;;;8.13;;
18659;SDS011;9459;50.254;19.014;2023-05-17T09:05:29;8.65;;;7.70;;
18659;SDS011;9459;50.254;19.014;2023-05-17T09:07:59;8.85;;;6.78;;
18659;SDS011;9459;50.254;19.014;2023-05-17T09:10:29;9.40;;;7.72;;
18659;SDS011;9459;50.254;19.014;2023-05-17T09:12:58;15.60;;;10.90;;
18659;SDS011;9459;50.254;19.014;2023-05-17T09:15:26;7.53;;;5.63;;
18659;SDS011;9459;50.254;19.014;2023-05-17T09:17:57;13.55;;;10.05;;
18659;SDS011;9459;50.254;19.014;2023-05-17T09:20:26;7.80;;;6.38;;
18659;SDS011;9459;50.254;19.014;2023-05-17T09:23:00;14.93;;;10.18;;
18659;SDS011;9459;50.254;19.014;2023-05-17T09:25:31;9.82;;;7.18;;
18659;SDS011;9459;50.254;19.014;2023-05-17T09:28:00;9.07;;;6.70;;
18659;SDS011;9459;50.254;19.014;2023-05-17T09:30:30;6.63;;;5.20;;
18659;SDS011;9459;50.254;19.014;2023-05-17T09:33:03;9.30;;;6.50;;
18659;SDS011;9459;50.254;19.014;2023-05-17T09:35:33;7.78;;;5.95;;
18659;SDS011;9459;50.254;19.014;2023-05-17T09:38:04;11.02;;;6.60;;
18659;SDS011;9459;50.254;19.014;2023-05-17T09:40:38;11.43;;;7.90;;
18659;SDS011;9459;50.254;19.014;2023-05-17T09:43:09;8.23;;;6.35;;
18659;SDS011;9459;50.254;19.014;2023-05-17T09:48:11;7.45;;;5.82;;
18659;SDS011;9459;50.254;19.014;2023-05-17T09:50:44;9.40;;;6.63;;
18659;SDS011;9459;50.254;19.014;2023-05-17T09:53:23;8.27;;;7.38;;
18659;SDS011;9459;50.254;19.014;2023-05-17T09:55:55;8.50;;;7.60;;
18659;SDS011;9459;50.254;19.014;2023-05-17T09:58:26;11.00;;;9.60;;
18659;SDS011;9459;50.254;19.014;2023-05-17T10:00:57;9.52;;;7.80;;
18659;SDS011;9459;50.254;19.014;2023-05-17T10:03:29;7.65;;;6.57;;
18659;SDS011;9459;50.254;19.014;2023-05-17T10:06:00;7.68;;;5.97;;
18659;SDS011;9459;50.254;19.014;2023-05-17T10:08:31;8.32;;;6.35;;
18659;SDS011;9459;50.254;19.014;2023-05-17T10:11:04;7.70;;;6.00;;
18659;SDS011;9459;50.254;19.014;2023-05-17T10:13:39;11.98;;;8.80;;
18659;SDS011;9459;50.254;19.014;2023-05-17T10:16:10;13.13;;;11.55;;
18659;SDS011;9459;50.254;19.014;2023-05-17T10:18:39;13.90;;;10.82;;
18659;SDS011;9459;50.254;19.014;2023-05-17T10:21:08;12.32;;;11.02;;
18659;SDS011;9459;50.254;19.014;2023-05-17T10:23:37;11.48;;;10.27;;
18659;SDS011;9459;50.254;19.014;2023-05-17T10:26:09;15.13;;;13.43;;
18659;SDS011;9459;50.254;19.014;2023-05-17T10:28:38;13.75;;;10.77;;
18659;SDS011;9459;50.254;19.014;2023-05-17T10:31:06;11.68;;;10.13;;
18659;SDS011;9459;50.254;19.014;2023-05-17T10:33:36;12.18;;;10.63;;
18659;SDS011;9459;50.254;19.014;2023-05-17T10:36:05;10.55;;;8.32;;
18659;SDS011;9459;50.254;19.014;2023-05-17T10:38:34;11.05;;;7.53;;
18659;SDS011;9459;50.254;19.014;2023-05-17T10:41:10;13.75;;;8.93;;
18659;SDS011;9459;50.254;19.014;2023-05-17T10:43:40;12.25;;;9.23;;
18659;SDS011;9459;50.254;19.014;2023-05-17T10:46:13;11.55;;;8.27;;
18659;SDS011;9459;50.254;19.014;2023-05-17T10:48:42;10.88;;;7.65;;
18659;SDS011;9459;50.254;19.014;2023-05-17T10:51:12;10.20;;;8.20;;
18659;SDS011;9459;50.254;19.014;2023-05-17T10:54:02;15.15;;;9.43;;
18659;SDS011;9459;50.254;19.014;2023-05-17T10:56:34;13.77;;;9.15;;
18659;SDS011;9459;50.254;19.014;2023-05-17T10:59:21;13.43;;;10.00;;
18659;SDS011;9459;50.254;19.014;2023-05-17T11:01:52;13.70;;;10.93;;
18659;SDS011;9459;50.254;19.014;2023-05-17T11:06:53;22.30;;;14.82;;
18659;SDS011;9459;50.254;19.014;2023-05-17T11:09:23;24.58;;;19.77;;
18659;SDS011;9459;50.254;19.014;2023-05-17T11:12:03;20.45;;;15.75;;
18659;SDS011;9459;50.254;19.014;2023-05-17T11:14:42;19.20;;;15.40;;
18659;SDS011;9459;50.254;19.014;2023-05-17T11:17:14;15.30;;;12.18;;
18659;SDS011;9459;50.254;19.014;2023-05-17T11:20:00;15.88;;;13.50;;
18659;SDS011;9459;50.254;19.014;2023-05-17T11:22:38;17.50;;;14.10;;
18659;SDS011;9459;50.254;19.014;2023-05-17T11:25:09;22.08;;;16.40;;
18659;SDS011;9459;50.254;19.014;2023-05-17T11:27:44;15.52;;;11.27;;
18659;SDS011;9459;50.254;19.014;2023-05-17T11:30:17;15.43;;;12.57;;
18659;SDS011;9459;50.254;19.014;2023-05-17T11:32:49;17.60;;;14.68;;
18659;SDS011;9459;50.254;19.014;2023-05-17T11:35:22;17.08;;;12.68;;
18659;SDS011;9459;50.254;19.014;2023-05-17T11:37:54;11.95;;;10.75;;
18659;SDS011;9459;50.254;19.014;2023-05-17T11:40:40;15.68;;;12.57;;
18659;SDS011;9459;50.254;19.014;2023-05-17T11:43:12;17.27;;;12.80;;
18659;SDS011;9459;50.254;19.014;2023-05-17T11:45:41;22.02;;;16.38;;
18659;SDS011;9459;50.254;19.014;2023-05-17T11:48:11;17.48;;;12.50;;
18659;SDS011;9459;50.254;19.014;2023-05-17T11:50:42;12.88;;;10.85;;
18659;SDS011;9459;50.254;19.014;2023-05-17T11:53:11;13.52;;;10.40;;
18659;SDS011;9459;50.254;19.014;2023-05-17T11:55:40;12.52;;;7.75;;
18659;SDS011;9459;50.254;19.014;2023-05-17T11:58:11;9.60;;;6.45;;
18659;SDS011;9459;50.254;19.014;2023-05-17T12:00:42;11.75;;;7.60;;
18659;SDS011;9459;50.254;19.014;2023-05-17T12:03:15;13.07;;;7.88;;
18659;SDS011;9459;50.254;19.014;2023-05-17T12:05:44;12.55;;;8.13;;
18659;SDS011;9459;50.254;19.014;2023-05-17T12:08:14;10.20;;;7.10;;
18659;SDS011;9459;50.254;19.014;2023-05-17T12:10:45;10.85;;;8.25;;
18659;SDS011;9459;50.254;19.014;2023-05-17T12:13:16;12.45;;;8.00;;
18659;SDS011;9459;50.254;19.014;2023-05-17T12:15:47;12.00;;;7.70;;
18659;SDS011;9459;50.254;19.014;2023-05-17T12:18:18;16.38;;;11.15;;
18659;SDS011;9459;50.254;19.014;2023-05-17T12:20:54;10.05;;;7.40;;
18659;SDS011;9459;50.254;19.014;2023-05-17T12:23:29;10.18;;;6.57;;
18659;SDS011;9459;50.254;19.014;2023-05-17T12:26:02;9.55;;;5.35;;
18659;SDS011;9459;50.254;19.014;2023-05-17T12:28:34;7.32;;;4.72;;
18659;SDS011;9459;50.254;19.014;2023-05-17T12:31:04;9.20;;;5.32;;
18659;SDS011;9459;50.254;19.014;2023-05-17T12:33:35;9.35;;;5.72;;
18659;SDS011;9459;50.254;19.014;2023-05-17T12:36:07;10.05;;;5.20;;
18659;SDS011;9459;50.254;19.014;2023-05-17T12:38:38;11.85;;;6.28;;
18659;SDS011;9459;50.254;19.014;2023-05-17T12:41:08;9.55;;;7.13;;
18659;SDS011;9459;50.254;19.014;2023-05-17T12:43:40;10.90;;;6.35;;
18659;SDS011;9459;50.254;19.014;2023-05-17T12:46:12;8.85;;;6.30;;
18659;SDS011;9459;50.254;19.014;2023-05-17T12:48:41;9.50;;;6.47;;
18659;SDS011;9459;50.254;19.014;2023-05-17T12:51:10;10.10;;;5.57;;
18659;SDS011;9459;50.254;19.014;2023-05-17T12:53:40;8.95;;;5.28;;
18659;SDS011;9459;50.254;19.014;2023-05-17T12:56:13;11.32;;;6.53;;
18659;SDS011;9459;50.254;19.014;2023-05-17T12:58:43;9.52;;;5.43;;
18659;SDS011;9459;50.254;19.014;2023-05-17T13:01:34;8.63;;;5.60;;
18659;SDS011;9459;50.254;19.014;2023-05-17T13:04:03;11.93;;;5.90;;
18659;SDS011;9459;50.254;19.014;2023-05-17T13:09:20;8.43;;;6.15;;
18659;SDS011;9459;50.254;19.014;2023-05-17T13:11:50;14.38;;;8.40;;
18659;SDS011;9459;50.254;19.014;2023-05-17T13:14:34;13.05;;;7.15;;
18659;SDS011;9459;50.254;19.014;2023-05-17T13:17:04;14.98;;;9.80;;
18659;SDS011;9459;50.254;19.014;2023-05-17T13:19:33;14.07;;;9.68;;
18659;SDS011;9459;50.254;19.014;2023-05-17T13:22:03;11.40;;;8.55;;
18659;SDS011;9459;50.254;19.014;2023-05-17T13:24:32;11.30;;;8.38;;
18659;SDS011;9459;50.254;19.014;2023-05-17T13:27:02;11.73;;;8.27;;
18659;SDS011;9459;50.254;19.014;2023-05-17T13:29:32;9.73;;;6.95;;
18659;SDS011;9459;50.254;19.014;2023-05-17T13:32:08;12.07;;;6.85;;
18659;SDS011;9459;50.254;19.014;2023-05-17T13:34:39;14.32;;;7.65;;
18659;SDS011;9459;50.254;19.014;2023-05-17T13:37:08;11.68;;;7.68;;
18659;SDS011;9459;50.254;19.014;2023-05-17T13:39:39;9.95;;;7.18;;
18659;SDS011;9459;50.254;19.014;2023-05-17T13:42:08;14.57;;;8.52;;
18659;SDS011;9459;50.254;19.014;2023-05-17T13:44:37;11.82;;;8.13;;
18659;SDS011;9459;50.254;19.014;2023-05-17T13:47:09;12.70;;;7.65;;
18659;SDS011;9459;50.254;19.014;2023-05-17T13:49:38;11.02;;;7.95;;
18659;SDS011;9459;50.254;19.014;2023-05-17T13:52:07;14.30;;;9.13;;
18659;SDS011;9459;50.254;19.014;2023-05-17T13:54:35;16.15;;;9.57;;
18659;SDS011;9459;50.254;19.014;2023-05-17T13:57:05;14.30;;;8.93;;
18659;SDS011;9459;50.254;19.014;2023-05-17T13:59:34;12.57;;;8.73;;
18659;SDS011;9459;50.254;19.014;2023-05-17T14:02:02;13.98;;;8.65;;
18659;SDS011;9459;50.254;19.014;2023-05-17T14:04:33;13.45;;;8.90;;
18659;SDS011;9459;50.254;19.014;2023-05-17T14:07:02;13.23;;;10.77;;
18659;SDS011;9459;50.254;19.014;2023-05-17T14:09:31;14.10;;;10.27;;
18659;SDS011;9459;50.254;19.014;2023-05-17T14:12:00;15.57;;;10.18;;
18659;SDS011;9459;50.254;19.014;2023-05-17T14:14:29;18.92;;;12.20;;
18659;SDS011;9459;50.254;19.014;2023-05-17T14:16:58;18.00;;;12.73;;
18659;SDS011;9459;50.254;19.014;2023-05-17T14:19:27;18.98;;;13.15;;
18659;SDS011;9459;50.254;19.014;2023-05-17T14:21:58;17.98;;;13.40;;
18659;SDS011;9459;50.254;19.014;2023-05-17T14:24:26;14.18;;;10.25;;
18659;SDS011;9459;50.254;19.014;2023-05-17T14:26:55;16.83;;;10.48;;
18659;SDS011;9459;50.254;19.014;2023-05-17T14:29:24;14.45;;;9.98;;
18659;SDS011;9459;50.254;19.014;2023-05-17T14:31:53;15.15;;;10.90;;
18659;SDS011;9459;50.254;19.014;2023-05-17T14:34:21;16.42;;;10.88;;
18659;SDS011;9459;50.254;19.014;2023-05-17T14:36:50;21.02;;;13.90;;
18659;SDS011;9459;50.254;19.014;2023-05-17T14:39:20;16.27;;;11.10;;
18659;SDS011;9459;50.254;19.014;2023-05-17T14:41:49;18.48;;;13.60;;
18659;SDS011;9459;50.254;19.014;2023-05-17T14:44:17;17.52;;;12.43;;
18659;SDS011;9459;50.254;19.014;2023-05-17T14:46:46;14.40;;;11.00;;
18659;SDS011;9459;50.254;19.014;2023-05-17T14:49:15;14.82;;;10.02;;
18659;SDS011;9459;50.254;19.014;2023-05-17T14:51:43;17.90;;;11.60;;
18659;SDS011;9459;50.254;19.014;2023-05-17T14:54:12;16.17;;;12.65;;
18659;SDS011;9459;50.254;19.014;2023-05-17T14:56:42;15.38;;;11.60;;
18659;SDS011;9459;50.254;19.014;2023-05-17T14:59:11;18.20;;;13.00;;
18659;SDS011;9459;50.254;19.014;2023-05-17T15:01:39;16.92;;;12.82;;
18659;SDS011;9459;50.254;19.014;2023-05-17T15:04:08;21.40;;;14.70;;
18659;SDS011;9459;50.254;19.014;2023-05-17T15:06:37;18.17;;;13.98;;
18659;SDS011;9459;50.254;19.014;2023-05-17T15:09:05;17.63;;;13.20;;
18659;SDS011;9459;50.254;19.014;2023-05-17T15:11:38;25.20;;;15.93;;